sensor_id;sensor_type;location;lat;lon;timestamp;temperature;humidity
6520;DHT22;3293;51.690;5.982;2024-03-08T00:03:27;3.80;99.90
6520;DHT22;3293;51.690;5.982;2024-03-08T00:08:28;3.70;99.90
6520;DHT22;3293;51.690;5.982;2024-03-08T00:13:30;3.70;99.90
6520;DHT22;3293;51.690;5.982;2024-03-08T00:18:30;3.60;99.90
6520;DHT22;3293;51.690;5.982;2024-03-08T00:23:30;3.50;99.90
6520;DHT22;3293;51.690;5.982;2024-03-08T00:28:30;3.50;99.90
6520;DHT22;3293;51.690;5.982;2024-03-08T00:33:30;3.50;99.90
6520;DHT22;3293;51.690;5.982;2024-03-08T00:38:30;3.50;99.90
6520;DHT22;3293;51.690;5.982;2024-03-08T00:43:31;3.40;99.90
6520;DHT22;3293;51.690;5.982;2024-03-08T00:48:31;3.40;99.90
6520;DHT22;3293;51.690;5.982;2024-03-08T00:53:31;3.30;99.90
6520;DHT22;3293;51.690;5.982;2024-03-08T00:58:30;3.30;99.90
6520;DHT22;3293;51.690;5.982;2024-03-08T01:03:31;3.20;99.90
6520;DHT22;3293;51.690;5.982;2024-03-08T01:08:31;3.20;99.90
6520;DHT22;3293;51.690;5.982;2024-03-08T01:13:31;3.20;99.90
6520;DHT22;3293;51.690;5.982;2024-03-08T01:18:31;3.10;99.90
6520;DHT22;3293;51.690;5.982;2024-03-08T01:23:31;3.10;99.90
6520;DHT22;3293;51.690;5.982;2024-03-08T01:28:31;3.10;99.90
6520;DHT22;3293;51.690;5.982;2024-03-08T01:33:31;3.00;99.90
6520;DHT22;3293;51.690;5.982;2024-03-08T01:38:31;3.00;99.90
6520;DHT22;3293;51.690;5.982;2024-03-08T01:43:31;2.90;99.90
6520;DHT22;3293;51.690;5.982;2024-03-08T01:48:31;2.90;99.90
6520;DHT22;3293;51.690;5.982;2024-03-08T01:53:32;2.80;99.90
6520;DHT22;3293;51.690;5.982;2024-03-08T01:58:32;2.80;99.90
6520;DHT22;3293;51.690;5.982;2024-03-08T02:03:32;2.80;99.90
6520;DHT22;3293;51.690;5.982;2024-03-08T02:08:32;2.70;99.90
6520;DHT22;3293;51.690;5.982;2024-03-08T02:13:32;2.70;99.90
6520;DHT22;3293;51.690;5.982;2024-03-08T02:18:33;2.80;99.90
6520;DHT22;3293;51.690;5.982;2024-03-08T02:23:34;2.60;99.90
6520;DHT22;3293;51.690;5.982;2024-03-08T02:28:34;2.60;99.90
6520;DHT22;3293;51.690;5.982;2024-03-08T02:33:34;2.50;99.90
6520;DHT22;3293;51.690;5.982;2024-03-08T02:38:35;2.50;99.90
6520;DHT22;3293;51.690;5.982;2024-03-08T02:43:35;2.50;99.90
6520;DHT22;3293;51.690;5.982;2024-03-08T02:48:35;2.40;99.90
6520;DHT22;3293;51.690;5.982;2024-03-08T02:53:35;2.40;99.90
6520;DHT22;3293;51.690;5.982;2024-03-08T02:58:35;2.40;99.90
6520;DHT22;3293;51.690;5.982;2024-03-08T03:03:35;2.40;99.90
6520;DHT22;3293;51.690;5.982;2024-03-08T03:08:35;2.40;99.90
6520;DHT22;3293;51.690;5.982;2024-03-08T03:13:35;2.40;99.90
6520;DHT22;3293;51.690;5.982;2024-03-08T03:18:34;2.30;99.90
6520;DHT22;3293;51.690;5.982;2024-03-08T03:23:34;2.20;99.90
6520;DHT22;3293;51.690;5.982;2024-03-08T03:28:34;2.20;99.90
6520;DHT22;3293;51.690;5.982;2024-03-08T03:33:34;2.10;99.90
6520;DHT22;3293;51.690;5.982;2024-03-08T03:38:36;2.10;99.90
6520;DHT22;3293;51.690;5.982;2024-03-08T03:43:37;2.10;99.90
6520;DHT22;3293;51.690;5.982;2024-03-08T03:48:39;2.10;99.90
6520;DHT22;3293;51.690;5.982;2024-03-08T03:53:39;2.20;99.90
6520;DHT22;3293;51.690;5.982;2024-03-08T03:58:39;2.10;99.90
6520;DHT22;3293;51.690;5.982;2024-03-08T04:03:41;2.10;99.90
6520;DHT22;3293;51.690;5.982;2024-03-08T04:08:42;2.10;99.90
6520;DHT22;3293;51.690;5.982;2024-03-08T04:13:43;2.10;99.90
6520;DHT22;3293;51.690;5.982;2024-03-08T04:18:43;2.00;99.90
6520;DHT22;3293;51.690;5.982;2024-03-08T04:23:43;2.00;99.90
6520;DHT22;3293;51.690;5.982;2024-03-08T04:28:44;2.10;99.90
6520;DHT22;3293;51.690;5.982;2024-03-08T04:33:44;2.00;99.90
6520;DHT22;3293;51.690;5.982;2024-03-08T04:38:44;2.00;99.90
6520;DHT22;3293;51.690;5.982;2024-03-08T04:43:44;2.00;99.90
6520;DHT22;3293;51.690;5.982;2024-03-08T04:48:44;2.00;99.90
6520;DHT22;3293;51.690;5.982;2024-03-08T04:53:44;2.00;99.90
6520;DHT22;3293;51.690;5.982;2024-03-08T04:58:43;1.90;99.90
6520;DHT22;3293;51.690;5.982;2024-03-08T05:03:43;1.80;99.90
6520;DHT22;3293;51.690;5.982;2024-03-08T05:08:43;1.80;99.90
6520;DHT22;3293;51.690;5.982;2024-03-08T05:13:43;1.80;99.90
6520;DHT22;3293;51.690;5.982;2024-03-08T05:18:44;1.80;99.90
6520;DHT22;3293;51.690;5.982;2024-03-08T05:23:46;1.80;99.90
6520;DHT22;3293;51.690;5.982;2024-03-08T05:28:46;1.70;99.90
6520;DHT22;3293;51.690;5.982;2024-03-08T05:33:46;1.70;99.90
6520;DHT22;3293;51.690;5.982;2024-03-08T05:38:46;1.70;99.90
6520;DHT22;3293;51.690;5.982;2024-03-08T05:43:46;1.70;99.90
6520;DHT22;3293;51.690;5.982;2024-03-08T05:48:46;1.60;99.90
6520;DHT22;3293;51.690;5.982;2024-03-08T05:53:46;1.60;99.90
6520;DHT22;3293;51.690;5.982;2024-03-08T05:58:46;1.50;99.90
6520;DHT22;3293;51.690;5.982;2024-03-08T06:03:46;1.50;99.90
6520;DHT22;3293;51.690;5.982;2024-03-08T06:08:48;1.40;99.90
6520;DHT22;3293;51.690;5.982;2024-03-08T06:13:49;1.40;99.90
6520;DHT22;3293;51.690;5.982;2024-03-08T06:18:49;1.40;99.90
6520;DHT22;3293;51.690;5.982;2024-03-08T06:23:49;1.50;99.90
6520;DHT22;3293;51.690;5.982;2024-03-08T06:28:49;1.40;99.90
6520;DHT22;3293;51.690;5.982;2024-03-08T06:33:50;1.50;99.90
6520;DHT22;3293;51.690;5.982;2024-03-08T06:38:50;1.60;99.90
6520;DHT22;3293;51.690;5.982;2024-03-08T06:43:50;1.60;99.90
6520;DHT22;3293;51.690;5.982;2024-03-08T06:48:51;1.60;99.90
6520;DHT22;3293;51.690;5.982;2024-03-08T06:53:51;1.70;99.90
6520;DHT22;3293;51.690;5.982;2024-03-08T06:58:52;1.80;99.90
6520;DHT22;3293;51.690;5.982;2024-03-08T07:03:51;1.90;99.90
6520;DHT22;3293;51.690;5.982;2024-03-08T07:08:52;2.00;99.90
6520;DHT22;3293;51.690;5.982;2024-03-08T07:13:52;2.10;99.90
6520;DHT22;3293;51.690;5.982;2024-03-08T07:18:51;2.20;99.90
6520;DHT22;3293;51.690;5.982;2024-03-08T07:23:52;2.30;99.90
6520;DHT22;3293;51.690;5.982;2024-03-08T07:29:01;2.40;99.90
6520;DHT22;3293;51.690;5.982;2024-03-08T07:34:01;2.80;99.90
6520;DHT22;3293;51.690;5.982;2024-03-08T07:39:01;3.50;99.90
6520;DHT22;3293;51.690;5.982;2024-03-08T07:44:00;3.90;99.90
6520;DHT22;3293;51.690;5.982;2024-03-08T07:49:03;3.90;99.90
6520;DHT22;3293;51.690;5.982;2024-03-08T07:54:04;4.20;99.90
6520;DHT22;3293;51.690;5.982;2024-03-08T07:59:08;4.40;99.90
6520;DHT22;3293;51.690;5.982;2024-03-08T08:04:08;4.20;99.90
6520;DHT22;3293;51.690;5.982;2024-03-08T08:09:11;4.10;99.90
6520;DHT22;3293;51.690;5.982;2024-03-08T08:14:14;4.30;99.90
6520;DHT22;3293;51.690;5.982;2024-03-08T08:19:14;4.70;99.90
6520;DHT22;3293;51.690;5.982;2024-03-08T08:24:15;5.10;99.90
6520;DHT22;3293;51.690;5.982;2024-03-08T08:29:15;5.40;99.90
6520;DHT22;3293;51.690;5.982;2024-03-08T08:34:16;5.80;99.90
6520;DHT22;3293;51.690;5.982;2024-03-08T08:39:19;6.00;99.90
6520;DHT22;3293;51.690;5.982;2024-03-08T08:44:18;6.20;99.90
6520;DHT22;3293;51.690;5.982;2024-03-08T08:49:18;6.00;99.90
6520;DHT22;3293;51.690;5.982;2024-03-08T08:54:20;5.60;99.90
6520;DHT22;3293;51.690;5.982;2024-03-08T08:59:20;5.50;99.90
6520;DHT22;3293;51.690;5.982;2024-03-08T09:04:20;5.50;99.90
6520;DHT22;3293;51.690;5.982;2024-03-08T09:09:21;5.70;99.90
6520;DHT22;3293;51.690;5.982;2024-03-08T09:14:21;5.70;99.90
6520;DHT22;3293;51.690;5.982;2024-03-08T09:19:21;5.70;99.90
6520;DHT22;3293;51.690;5.982;2024-03-08T09:24:23;5.90;99.90
6520;DHT22;3293;51.690;5.982;2024-03-08T09:29:22;6.00;99.90
6520;DHT22;3293;51.690;5.982;2024-03-08T09:34:23;6.10;99.90
6520;DHT22;3293;51.690;5.982;2024-03-08T09:39:23;6.20;99.90
6520;DHT22;3293;51.690;5.982;2024-03-08T09:44:23;6.40;99.90
6520;DHT22;3293;51.690;5.982;2024-03-08T09:49:24;6.50;99.90
6520;DHT22;3293;51.690;5.982;2024-03-08T09:54:25;6.70;99.90
6520;DHT22;3293;51.690;5.982;2024-03-08T09:59:26;6.90;99.90
6520;DHT22;3293;51.690;5.982;2024-03-08T10:04:25;7.00;99.90
6520;DHT22;3293;51.690;5.982;2024-03-08T10:09:28;7.20;99.90
6520;DHT22;3293;51.690;5.982;2024-03-08T10:14:28;7.30;99.90
6520;DHT22;3293;51.690;5.982;2024-03-08T10:19:27;7.50;99.90
6520;DHT22;3293;51.690;5.982;2024-03-08T10:24:30;7.50;99.90
6520;DHT22;3293;51.690;5.982;2024-03-08T10:29:33;7.70;99.90
6520;DHT22;3293;51.690;5.982;2024-03-08T10:34:33;7.70;99.90
6520;DHT22;3293;51.690;5.982;2024-03-08T10:39:36;7.80;99.90
6520;DHT22;3293;51.690;5.982;2024-03-08T10:45:06;7.80;99.90
6520;DHT22;3293;51.690;5.982;2024-03-08T10:50:19;7.90;99.90
6520;DHT22;3293;51.690;5.982;2024-03-08T10:55:21;8.00;99.90
6520;DHT22;3293;51.690;5.982;2024-03-08T11:00:21;8.10;99.90
6520;DHT22;3293;51.690;5.982;2024-03-08T11:05:35;8.20;99.90
6520;DHT22;3293;51.690;5.982;2024-03-08T11:10:47;8.40;99.90
6520;DHT22;3293;51.690;5.982;2024-03-08T11:15:51;8.60;99.90
6520;DHT22;3293;51.690;5.982;2024-03-08T11:20:51;8.70;99.90
6520;DHT22;3293;51.690;5.982;2024-03-08T11:25:53;8.80;99.90
6520;DHT22;3293;51.690;5.982;2024-03-08T11:36:10;9.00;98.70
6520;DHT22;3293;51.690;5.982;2024-03-08T11:41:20;9.00;98.30
6520;DHT22;3293;51.690;5.982;2024-03-08T11:46:20;9.10;98.50
6520;DHT22;3293;51.690;5.982;2024-03-08T11:51:20;9.10;97.10
6520;DHT22;3293;51.690;5.982;2024-03-08T11:56:21;9.00;97.10
6520;DHT22;3293;51.690;5.982;2024-03-08T12:01:20;9.10;96.50
6520;DHT22;3293;51.690;5.982;2024-03-08T12:06:21;9.10;96.40
6520;DHT22;3293;51.690;5.982;2024-03-08T12:11:23;9.10;96.90
6520;DHT22;3293;51.690;5.982;2024-03-08T12:16:24;9.20;96.50
6520;DHT22;3293;51.690;5.982;2024-03-08T12:21:26;9.40;95.80
6520;DHT22;3293;51.690;5.982;2024-03-08T12:26:28;9.40;96.10
6520;DHT22;3293;51.690;5.982;2024-03-08T12:31:28;9.40;94.60
6520;DHT22;3293;51.690;5.982;2024-03-08T12:36:29;9.40;95.30
6520;DHT22;3293;51.690;5.982;2024-03-08T12:41:28;9.70;94.90
6520;DHT22;3293;51.690;5.982;2024-03-08T12:46:28;9.80;94.30
6520;DHT22;3293;51.690;5.982;2024-03-08T12:51:29;9.90;95.20
6520;DHT22;3293;51.690;5.982;2024-03-08T12:56:31;9.80;94.10
6520;DHT22;3293;51.690;5.982;2024-03-08T13:01:32;9.80;95.50
6520;DHT22;3293;51.690;5.982;2024-03-08T13:06:32;9.90;94.60
6520;DHT22;3293;51.690;5.982;2024-03-08T13:11:32;10.00;94.10
6520;DHT22;3293;51.690;5.982;2024-03-08T13:16:36;10.00;92.60
6520;DHT22;3293;51.690;5.982;2024-03-08T13:21:36;10.00;92.20
6520;DHT22;3293;51.690;5.982;2024-03-08T13:26:36;10.00;93.10
6520;DHT22;3293;51.690;5.982;2024-03-08T13:31:36;10.10;92.60
6520;DHT22;3293;51.690;5.982;2024-03-08T13:36:36;10.10;93.10
6520;DHT22;3293;51.690;5.982;2024-03-08T13:41:42;10.20;92.60
6520;DHT22;3293;51.690;5.982;2024-03-08T13:46:41;10.10;93.00
6520;DHT22;3293;51.690;5.982;2024-03-08T13:51:41;10.10;93.00
6520;DHT22;3293;51.690;5.982;2024-03-08T13:56:41;10.20;92.40
6520;DHT22;3293;51.690;5.982;2024-03-08T14:01:43;10.30;92.20
6520;DHT22;3293;51.690;5.982;2024-03-08T14:06:43;10.20;91.20
6520;DHT22;3293;51.690;5.982;2024-03-08T14:11:46;10.30;92.20
6520;DHT22;3293;51.690;5.982;2024-03-08T14:16:47;10.30;90.80
6520;DHT22;3293;51.690;5.982;2024-03-08T14:21:47;10.30;91.40
6520;DHT22;3293;51.690;5.982;2024-03-08T14:26:47;10.40;91.00
6520;DHT22;3293;51.690;5.982;2024-03-08T14:31:48;10.40;91.10
6520;DHT22;3293;51.690;5.982;2024-03-08T14:36:48;10.40;90.70
6520;DHT22;3293;51.690;5.982;2024-03-08T14:41:48;10.40;89.90
6520;DHT22;3293;51.690;5.982;2024-03-08T14:46:48;10.40;90.20
6520;DHT22;3293;51.690;5.982;2024-03-08T14:51:48;10.40;90.50
6520;DHT22;3293;51.690;5.982;2024-03-08T14:56:49;10.50;90.30
6520;DHT22;3293;51.690;5.982;2024-03-08T15:01:51;10.50;91.10
6520;DHT22;3293;51.690;5.982;2024-03-08T15:06:51;10.40;92.00
6520;DHT22;3293;51.690;5.982;2024-03-08T15:11:52;10.30;91.20
6520;DHT22;3293;51.690;5.982;2024-03-08T15:16:52;10.30;91.60
6520;DHT22;3293;51.690;5.982;2024-03-08T15:21:52;10.20;92.10
6520;DHT22;3293;51.690;5.982;2024-03-08T15:26:56;10.20;92.10
6520;DHT22;3293;51.690;5.982;2024-03-08T15:31:57;10.20;91.70
6520;DHT22;3293;51.690;5.982;2024-03-08T15:36:57;10.10;91.70
6520;DHT22;3293;51.690;5.982;2024-03-08T15:42:01;10.10;91.50
6520;DHT22;3293;51.690;5.982;2024-03-08T15:47:01;10.10;92.40
6520;DHT22;3293;51.690;5.982;2024-03-08T15:52:01;10.00;92.50
6520;DHT22;3293;51.690;5.982;2024-03-08T15:57:01;10.00;91.60
6520;DHT22;3293;51.690;5.982;2024-03-08T16:02:07;10.00;92.10
6520;DHT22;3293;51.690;5.982;2024-03-08T16:07:07;9.90;92.50
6520;DHT22;3293;51.690;5.982;2024-03-08T16:12:07;9.90;92.60
6520;DHT22;3293;51.690;5.982;2024-03-08T16:17:08;9.80;92.70
6520;DHT22;3293;51.690;5.982;2024-03-08T16:22:08;9.80;93.00
6520;DHT22;3293;51.690;5.982;2024-03-08T16:27:08;9.70;92.60
6520;DHT22;3293;51.690;5.982;2024-03-08T16:32:08;9.70;92.40
6520;DHT22;3293;51.690;5.982;2024-03-08T16:37:07;9.60;92.60
6520;DHT22;3293;51.690;5.982;2024-03-08T16:42:07;9.50;92.80
6520;DHT22;3293;51.690;5.982;2024-03-08T16:47:07;9.40;93.20
6520;DHT22;3293;51.690;5.982;2024-03-08T16:52:07;9.30;93.40
6520;DHT22;3293;51.690;5.982;2024-03-08T16:57:07;9.30;93.80
6520;DHT22;3293;51.690;5.982;2024-03-08T17:02:11;9.20;94.10
6520;DHT22;3293;51.690;5.982;2024-03-08T17:07:11;9.00;94.40
6520;DHT22;3293;51.690;5.982;2024-03-08T17:12:11;8.90;94.20
6520;DHT22;3293;51.690;5.982;2024-03-08T17:17:18;8.90;94.80
6520;DHT22;3293;51.690;5.982;2024-03-08T17:22:17;8.80;98.40
6520;DHT22;3293;51.690;5.982;2024-03-08T17:27:17;8.70;98.10
6520;DHT22;3293;51.690;5.982;2024-03-08T17:32:17;8.50;98.10
6520;DHT22;3293;51.690;5.982;2024-03-08T17:37:18;8.40;98.10
6520;DHT22;3293;51.690;5.982;2024-03-08T17:42:18;8.30;98.90
6520;DHT22;3293;51.690;5.982;2024-03-08T17:47:18;8.20;99.20
6520;DHT22;3293;51.690;5.982;2024-03-08T17:52:19;8.10;99.60
6520;DHT22;3293;51.690;5.982;2024-03-08T17:57:20;8.10;99.70
6520;DHT22;3293;51.690;5.982;2024-03-08T18:02:20;8.00;99.90
6520;DHT22;3293;51.690;5.982;2024-03-08T18:07:20;7.90;99.90
6520;DHT22;3293;51.690;5.982;2024-03-08T18:12:20;7.90;99.90
6520;DHT22;3293;51.690;5.982;2024-03-08T18:17:19;7.80;99.90
6520;DHT22;3293;51.690;5.982;2024-03-08T18:22:19;7.70;99.90
6520;DHT22;3293;51.690;5.982;2024-03-08T18:27:19;7.60;99.90
6520;DHT22;3293;51.690;5.982;2024-03-08T18:32:19;7.60;99.90
6520;DHT22;3293;51.690;5.982;2024-03-08T18:37:21;7.50;99.90
6520;DHT22;3293;51.690;5.982;2024-03-08T18:42:22;7.40;99.90
6520;DHT22;3293;51.690;5.982;2024-03-08T18:47:22;7.30;99.90
6520;DHT22;3293;51.690;5.982;2024-03-08T18:52:22;7.20;99.90
6520;DHT22;3293;51.690;5.982;2024-03-08T18:57:21;7.20;99.90
6520;DHT22;3293;51.690;5.982;2024-03-08T19:02:21;7.20;99.90
6520;DHT22;3293;51.690;5.982;2024-03-08T19:07:21;7.20;99.90
6520;DHT22;3293;51.690;5.982;2024-03-08T19:12:21;7.10;99.90
6520;DHT22;3293;51.690;5.982;2024-03-08T19:17:22;7.10;99.90
6520;DHT22;3293;51.690;5.982;2024-03-08T19:22:23;7.10;99.90
6520;DHT22;3293;51.690;5.982;2024-03-08T19:27:23;7.00;99.90
6520;DHT22;3293;51.690;5.982;2024-03-08T19:32:23;7.10;99.90
6520;DHT22;3293;51.690;5.982;2024-03-08T19:37:23;7.00;99.90
6520;DHT22;3293;51.690;5.982;2024-03-08T19:42:24;6.90;99.90
6520;DHT22;3293;51.690;5.982;2024-03-08T19:47:26;6.80;99.90
6520;DHT22;3293;51.690;5.982;2024-03-08T19:52:29;6.80;99.90
6520;DHT22;3293;51.690;5.982;2024-03-08T19:57:28;6.70;99.90
6520;DHT22;3293;51.690;5.982;2024-03-08T20:02:29;6.70;99.90
6520;DHT22;3293;51.690;5.982;2024-03-08T20:07:29;6.70;99.90
6520;DHT22;3293;51.690;5.982;2024-03-08T20:12:29;6.60;99.90
6520;DHT22;3293;51.690;5.982;2024-03-08T20:17:30;6.60;99.90
6520;DHT22;3293;51.690;5.982;2024-03-08T20:22:30;6.50;99.90
6520;DHT22;3293;51.690;5.982;2024-03-08T20:27:30;6.50;99.90
6520;DHT22;3293;51.690;5.982;2024-03-08T20:32:32;6.40;99.90
6520;DHT22;3293;51.690;5.982;2024-03-08T20:37:32;6.50;99.90
6520;DHT22;3293;51.690;5.982;2024-03-08T20:42:33;6.50;99.90
6520;DHT22;3293;51.690;5.982;2024-03-08T20:47:34;6.40;99.90
6520;DHT22;3293;51.690;5.982;2024-03-08T20:52:37;6.40;99.90
6520;DHT22;3293;51.690;5.982;2024-03-08T20:57:40;6.40;99.90
6520;DHT22;3293;51.690;5.982;2024-03-08T21:02:46;6.30;99.90
6520;DHT22;3293;51.690;5.982;2024-03-08T21:07:46;6.30;99.90
6520;DHT22;3293;51.690;5.982;2024-03-08T21:12:45;6.30;99.90
6520;DHT22;3293;51.690;5.982;2024-03-08T21:17:51;6.30;99.90
6520;DHT22;3293;51.690;5.982;2024-03-08T21:22:51;6.20;99.90
6520;DHT22;3293;51.690;5.982;2024-03-08T21:27:51;6.20;99.90
6520;DHT22;3293;51.690;5.982;2024-03-08T21:32:51;6.00;99.90
6520;DHT22;3293;51.690;5.982;2024-03-08T21:37:51;6.00;99.90
6520;DHT22;3293;51.690;5.982;2024-03-08T21:42:53;6.00;99.90
6520;DHT22;3293;51.690;5.982;2024-03-08T21:47:53;6.00;99.90
6520;DHT22;3293;51.690;5.982;2024-03-08T21:52:55;5.90;99.90
6520;DHT22;3293;51.690;5.982;2024-03-08T21:57:55;5.90;99.90
6520;DHT22;3293;51.690;5.982;2024-03-08T22:02:54;5.80;99.90
6520;DHT22;3293;51.690;5.982;2024-03-08T22:07:56;5.90;99.90
6520;DHT22;3293;51.690;5.982;2024-03-08T22:12:56;5.90;99.90
6520;DHT22;3293;51.690;5.982;2024-03-08T22:17:55;5.80;99.90
6520;DHT22;3293;51.690;5.982;2024-03-08T22:22:55;5.70;99.90
6520;DHT22;3293;51.690;5.982;2024-03-08T22:27:55;5.70;99.90
6520;DHT22;3293;51.690;5.982;2024-03-08T22:32:55;5.70;99.90
6520;DHT22;3293;51.690;5.982;2024-03-08T22:37:55;5.70;99.90
6520;DHT22;3293;51.690;5.982;2024-03-08T22:42:55;5.60;99.90
6520;DHT22;3293;51.690;5.982;2024-03-08T22:47:55;5.50;99.90
6520;DHT22;3293;51.690;5.982;2024-03-08T22:52:55;5.60;99.90
6520;DHT22;3293;51.690;5.982;2024-03-08T22:57:55;5.60;99.90
6520;DHT22;3293;51.690;5.982;2024-03-08T23:02:56;5.50;99.90
6520;DHT22;3293;51.690;5.982;2024-03-08T23:07:56;5.50;99.90
6520;DHT22;3293;51.690;5.982;2024-03-08T23:12:59;5.50;99.90
6520;DHT22;3293;51.690;5.982;2024-03-08T23:17:59;5.40;99.90
6520;DHT22;3293;51.690;5.982;2024-03-08T23:22:58;5.40;99.90
6520;DHT22;3293;51.690;5.982;2024-03-08T23:28:03;5.30;99.90
6520;DHT22;3293;51.690;5.982;2024-03-08T23:33:08;5.10;99.90
6520;DHT22;3293;51.690;5.982;2024-03-08T23:38:08;5.20;99.90
6520;DHT22;3293;51.690;5.982;2024-03-08T23:43:09;5.20;99.90
6520;DHT22;3293;51.690;5.982;2024-03-08T23:48:09;5.10;99.90
6520;DHT22;3293;51.690;5.982;2024-03-08T23:53:10;5.10;99.90
6520;DHT22;3293;51.690;5.982;2024-03-08T23:58:10;5.00;99.90
